createdAt,value
2017-11-25T00:01:25.289Z,31.83
2017-11-25T00:03:52.754Z,29.47
2017-11-25T00:06:20.269Z,28.20
2017-11-25T00:08:47.716Z,38.40
2017-11-25T00:11:15.190Z,29.87
2017-11-25T00:13:42.650Z,28.67
2017-11-25T00:16:10.110Z,31.27
2017-11-25T00:18:37.582Z,31.53
2017-11-25T00:21:05.047Z,31.47
2017-11-25T00:23:32.601Z,36.83
2017-11-25T00:26:00.061Z,31.47
2017-11-25T00:28:27.537Z,31.50
2017-11-25T00:30:54.995Z,30.90
2017-11-25T00:33:22.471Z,31.20
2017-11-25T00:35:50.701Z,33.20
2017-11-25T00:38:18.192Z,31.43
2017-11-25T00:40:46.418Z,39.33
2017-11-25T00:43:13.883Z,39.70
2017-11-25T00:45:41.349Z,29.80
2017-11-25T00:48:08.818Z,34.87
2017-11-25T00:50:36.348Z,33.67
2017-11-25T00:53:03.811Z,22.40
2017-11-25T00:55:31.280Z,20.00
2017-11-25T00:57:58.762Z,17.93
2017-11-25T01:00:26.684Z,9.13
2017-11-25T01:02:54.136Z,5.93
2017-11-25T01:05:21.593Z,9.30
2017-11-25T01:07:49.056Z,6.00
2017-11-25T01:10:16.513Z,6.80
2017-11-25T01:12:43.979Z,10.53
2017-11-25T01:15:11.452Z,7.90
2017-11-25T01:17:38.917Z,6.30
2017-11-25T01:20:06.415Z,3.43
2017-11-25T01:22:33.865Z,4.00
2017-11-25T01:25:01.320Z,3.10
2017-11-25T01:27:29.565Z,5.53
2017-11-25T01:29:57.050Z,5.63
2017-11-25T01:32:24.522Z,6.80
2017-11-25T01:34:52.091Z,4.53
2017-11-25T01:37:19.552Z,7.47
2017-11-25T01:39:47.211Z,4.60
2017-11-25T01:42:14.665Z,8.90
2017-11-25T01:44:42.134Z,9.73
2017-11-25T01:47:09.593Z,9.30
2017-11-25T01:49:37.073Z,11.03
2017-11-25T01:52:04.529Z,9.10
2017-11-25T01:54:32.025Z,10.63
2017-11-25T01:57:00.291Z,11.43
2017-11-25T01:59:28.634Z,7.90
2017-11-25T02:01:56.098Z,6.40
2017-11-25T02:04:23.552Z,3.67
2017-11-25T02:06:51.019Z,4.10
2017-11-25T02:09:18.491Z,5.40
2017-11-25T02:11:46.713Z,2.73
2017-11-25T02:14:14.290Z,8.77
2017-11-25T02:16:41.755Z,3.83
2017-11-25T02:19:09.215Z,3.13
2017-11-25T02:21:36.726Z,3.33
2017-11-25T02:24:04.236Z,3.80
2017-11-25T02:26:31.692Z,4.83
2017-11-25T02:28:59.148Z,3.03
2017-11-25T02:31:26.604Z,2.73
2017-11-25T02:33:54.088Z,4.60
2017-11-25T02:36:22.312Z,3.60
2017-11-25T02:38:49.758Z,4.40
2017-11-25T02:41:17.223Z,4.17
2017-11-25T02:43:44.689Z,5.60
2017-11-25T02:46:12.185Z,3.10
2017-11-25T02:48:40.416Z,3.73
2017-11-25T02:51:07.878Z,4.57
2017-11-25T02:53:35.339Z,5.00
2017-11-25T02:56:02.814Z,5.20
2017-11-25T02:58:30.773Z,8.10
2017-11-25T03:00:58.214Z,7.23
2017-11-25T03:03:25.676Z,6.90
2017-11-25T03:05:53.141Z,9.10
2017-11-25T03:08:20.625Z,9.97
2017-11-25T03:10:48.910Z,7.83
2017-11-25T03:13:17.141Z,8.20
2017-11-25T03:15:44.620Z,12.37
2017-11-25T03:18:12.081Z,9.07
2017-11-25T03:20:39.541Z,7.80
2017-11-25T03:23:07.774Z,12.20
2017-11-25T03:25:35.234Z,9.10
2017-11-25T03:28:02.709Z,7.77
2017-11-25T03:30:31.692Z,8.40
2017-11-25T03:32:59.190Z,8.27
2017-11-25T03:35:27.426Z,10.50
2017-11-25T03:37:54.901Z,5.70
2017-11-25T03:40:22.465Z,8.77
2017-11-25T03:42:49.925Z,8.90
2017-11-25T03:45:17.382Z,8.63
2017-11-25T03:47:45.610Z,6.93
2017-11-25T03:50:13.080Z,7.13
2017-11-25T03:52:40.521Z,7.67
2017-11-25T03:55:07.994Z,10.07
2017-11-25T03:57:35.477Z,12.00
2017-11-25T04:00:02.969Z,9.43
2017-11-25T04:02:30.448Z,7.17
2017-11-25T04:04:57.897Z,8.63
2017-11-25T04:10:00.004Z,9.00
2017-11-25T04:12:27.477Z,13.73
2017-11-25T04:14:55.940Z,8.33
2017-11-25T04:17:23.378Z,8.83
2017-11-25T04:19:50.853Z,8.83
2017-11-25T04:22:18.311Z,11.90
2017-11-25T04:24:45.830Z,7.20
2017-11-25T04:27:13.330Z,8.43
2017-11-25T04:29:40.912Z,13.17
2017-11-25T04:32:08.371Z,7.67
2017-11-25T04:34:35.856Z,7.40
2017-11-25T04:37:03.329Z,9.93
2017-11-25T04:39:30.799Z,10.07
2017-11-25T04:41:58.266Z,9.30
2017-11-25T04:44:25.747Z,7.53
2017-11-25T04:46:53.991Z,8.37
2017-11-25T04:49:21.438Z,11.70
2017-11-25T04:51:49.831Z,8.03
2017-11-25T04:54:17.279Z,14.37
2017-11-25T04:56:44.741Z,11.33
2017-11-25T04:59:12.209Z,10.67
2017-11-25T05:01:39.690Z,11.53
2017-11-25T05:04:07.151Z,7.93
2017-11-25T05:06:34.694Z,7.70
2017-11-25T05:09:02.368Z,8.00
2017-11-25T05:11:29.818Z,7.60
2017-11-25T05:13:57.280Z,9.83
2017-11-25T05:16:24.811Z,7.83
2017-11-25T05:18:52.257Z,6.33
2017-11-25T05:21:19.713Z,8.30
2017-11-25T05:23:47.182Z,9.23
2017-11-25T05:26:14.644Z,12.80
2017-11-25T05:28:42.112Z,11.47
2017-11-25T05:31:09.568Z,16.30
2017-11-25T05:33:37.038Z,8.20
2017-11-25T05:36:04.514Z,11.07
2017-11-25T05:38:32.729Z,10.90
2017-11-25T05:41:00.225Z,12.67
2017-11-25T05:43:27.680Z,10.80
2017-11-25T05:45:55.169Z,9.37
2017-11-25T05:48:22.641Z,11.83
2017-11-25T05:50:50.094Z,9.53
2017-11-25T05:53:17.560Z,9.43
2017-11-25T05:55:45.190Z,8.17
2017-11-25T05:58:13.417Z,8.87
2017-11-25T06:00:41.049Z,10.17
2017-11-25T06:03:08.521Z,11.33
2017-11-25T06:05:36.261Z,10.40
2017-11-25T06:08:03.833Z,12.40
2017-11-25T06:10:31.291Z,8.13
2017-11-25T06:12:58.746Z,11.13
2017-11-25T06:15:26.206Z,8.93
2017-11-25T06:17:53.977Z,10.10
2017-11-25T06:20:22.397Z,11.90
2017-11-25T06:22:50.649Z,10.00
2017-11-25T06:25:18.114Z,9.17
2017-11-25T06:27:45.609Z,11.00
2017-11-25T06:30:13.848Z,11.33
2017-11-25T06:32:41.927Z,8.70
2017-11-25T06:35:09.378Z,10.60
2017-11-25T06:37:36.909Z,12.90
2017-11-25T06:40:04.386Z,11.10
2017-11-25T06:42:31.870Z,12.10
2017-11-25T06:45:00.139Z,9.10
2017-11-25T06:47:27.602Z,8.67
2017-11-25T06:49:56.131Z,10.57
2017-11-25T06:52:23.621Z,12.00
2017-11-25T06:54:51.066Z,9.93
2017-11-25T06:57:18.537Z,16.57
2017-11-25T06:59:46.002Z,10.00
2017-11-25T07:02:13.452Z,9.83
2017-11-25T07:04:41.211Z,10.77
2017-11-25T07:07:08.666Z,12.00
2017-11-25T07:09:36.109Z,11.27
2017-11-25T07:14:37.509Z,14.27
2017-11-25T07:17:05.085Z,12.10
2017-11-25T07:19:33.324Z,13.93
2017-11-25T07:22:00.789Z,17.20
2017-11-25T07:24:28.258Z,18.53
2017-11-25T07:26:56.486Z,13.27
2017-11-25T07:29:23.961Z,14.90
2017-11-25T07:31:51.413Z,19.23
2017-11-25T07:34:18.993Z,14.20
2017-11-25T07:36:46.466Z,13.80
2017-11-25T07:39:14.839Z,10.73
2017-11-25T07:41:42.297Z,11.23
2017-11-25T07:44:10.518Z,10.93
2017-11-25T07:46:38.000Z,7.63
2017-11-25T07:49:05.584Z,11.57
2017-11-25T07:51:33.045Z,6.53
2017-11-25T07:54:01.269Z,10.87
2017-11-25T07:56:28.722Z,7.17
2017-11-25T07:58:56.178Z,13.73
2017-11-25T08:01:23.646Z,7.80
2017-11-25T08:03:51.101Z,7.00
2017-11-25T08:06:18.567Z,9.33
2017-11-25T08:08:46.038Z,6.60
2017-11-25T08:11:13.522Z,7.30
2017-11-25T08:13:41.769Z,10.43
2017-11-25T08:16:09.221Z,3.90
2017-11-25T08:18:36.690Z,6.70
2017-11-25T08:21:04.190Z,6.70
2017-11-25T08:23:31.729Z,9.40
2017-11-25T08:25:59.974Z,5.73
2017-11-25T08:28:27.449Z,5.57
2017-11-25T08:30:55.022Z,4.13
2017-11-25T08:33:23.238Z,4.83
2017-11-25T08:35:50.700Z,6.57
2017-11-25T08:38:18.801Z,7.33
2017-11-25T08:40:46.251Z,4.40
2017-11-25T08:43:15.221Z,6.97
2017-11-25T08:45:42.729Z,9.77
2017-11-25T08:48:10.978Z,10.97
2017-11-25T08:50:38.431Z,6.67
2017-11-25T08:53:05.893Z,11.83
2017-11-25T08:55:33.350Z,8.57
2017-11-25T08:58:00.830Z,10.60
2017-11-25T09:00:29.059Z,7.30
2017-11-25T09:02:56.525Z,15.30
2017-11-25T09:05:24.009Z,8.60
2017-11-25T09:07:51.513Z,5.17
2017-11-25T09:10:18.969Z,5.77
2017-11-25T09:12:46.429Z,9.00
2017-11-25T09:15:13.876Z,5.20
2017-11-25T09:17:41.348Z,5.50
2017-11-25T09:20:09.293Z,7.10
2017-11-25T09:22:36.741Z,7.07
2017-11-25T09:25:04.201Z,5.50
2017-11-25T09:27:31.672Z,5.13
2017-11-25T09:29:59.113Z,5.83
2017-11-25T09:32:26.585Z,12.17
2017-11-25T09:34:54.047Z,4.73
2017-11-25T09:37:21.648Z,7.97
2017-11-25T09:39:49.102Z,6.63
2017-11-25T09:42:17.331Z,7.10
2017-11-25T09:44:44.784Z,13.63
2017-11-25T09:47:12.281Z,14.20
2017-11-25T09:49:39.770Z,10.23
2017-11-25T09:52:11.185Z,10.93
2017-11-25T09:54:38.657Z,15.60
2017-11-25T09:57:06.128Z,7.20
2017-11-25T09:59:33.594Z,9.40
2017-11-25T10:02:01.881Z,11.40
2017-11-25T10:04:30.128Z,17.10
2017-11-25T10:06:57.595Z,13.63
2017-11-25T10:09:25.835Z,9.33
2017-11-25T10:11:53.296Z,8.73
2017-11-25T10:14:20.768Z,9.50
2017-11-25T10:16:48.218Z,7.40
2017-11-25T10:19:15.670Z,8.60
2017-11-25T10:21:43.237Z,8.73
2017-11-25T10:24:10.910Z,10.80
2017-11-25T10:26:38.385Z,8.90
2017-11-25T10:29:06.730Z,11.37
2017-11-25T10:31:34.200Z,6.83
2017-11-25T10:34:01.643Z,8.33
2017-11-25T10:36:29.185Z,6.70
2017-11-25T10:38:56.641Z,10.27
2017-11-25T10:41:24.113Z,10.10
2017-11-25T10:43:51.575Z,6.43
2017-11-25T10:46:19.045Z,10.43
2017-11-25T10:48:48.005Z,7.87
2017-11-25T10:51:15.653Z,10.23
2017-11-25T10:53:43.117Z,9.67
2017-11-25T10:56:10.587Z,14.37
2017-11-25T10:58:38.056Z,19.53
2017-11-25T11:01:05.546Z,14.00
2017-11-25T11:03:33.809Z,16.60
2017-11-25T11:06:02.084Z,15.50
2017-11-25T11:08:30.423Z,16.80
2017-11-25T11:10:58.085Z,16.00
2017-11-25T11:13:25.595Z,21.47
2017-11-25T11:15:53.955Z,12.43
2017-11-25T11:18:21.468Z,16.20
2017-11-25T11:20:48.950Z,13.93
2017-11-25T11:23:16.439Z,12.77
2017-11-25T11:25:44.832Z,13.00
2017-11-25T11:28:12.337Z,12.10
2017-11-25T11:30:39.926Z,6.17
2017-11-25T11:33:08.675Z,12.10
2017-11-25T11:35:36.476Z,7.83
2017-11-25T11:38:04.195Z,11.20
2017-11-25T11:40:31.903Z,5.70
2017-11-25T11:43:00.263Z,5.43
2017-11-25T11:45:28.456Z,7.43
2017-11-25T11:47:57.180Z,7.50
2017-11-25T11:50:24.692Z,6.43
2017-11-25T11:52:52.617Z,8.97
2017-11-25T11:55:20.307Z,7.40
2017-11-25T11:57:47.771Z,17.77
2017-11-25T12:00:15.245Z,8.07
2017-11-25T12:02:43.488Z,8.23
2017-11-25T12:05:11.707Z,8.87
2017-11-25T12:07:40.126Z,9.97
2017-11-25T12:10:07.848Z,8.50
2017-11-25T12:12:35.955Z,6.90
2017-11-25T12:15:04.541Z,5.70
2017-11-25T12:17:32.761Z,8.47
2017-11-25T12:20:01.041Z,6.50
2017-11-25T12:22:30.367Z,6.73
2017-11-25T12:24:57.844Z,11.40
2017-11-25T12:27:25.469Z,12.23
2017-11-25T12:29:53.748Z,7.27
2017-11-25T12:32:21.257Z,6.13
2017-11-25T12:34:48.736Z,5.50
2017-11-25T12:37:16.205Z,6.90
2017-11-25T12:39:44.646Z,5.80
2017-11-25T12:42:12.115Z,6.63
2017-11-25T12:44:39.587Z,6.50
2017-11-25T12:47:07.059Z,13.03
2017-11-25T12:49:35.310Z,7.37
2017-11-25T12:52:02.772Z,6.40
2017-11-25T12:54:30.239Z,9.00
2017-11-25T12:56:57.690Z,8.53
2017-11-25T12:59:25.173Z,5.87
2017-11-25T13:01:53.401Z,6.37
2017-11-25T13:04:20.872Z,6.77
2017-11-25T13:06:49.076Z,14.67
2017-11-25T13:09:17.285Z,8.80
2017-11-25T13:11:44.764Z,8.10
2017-11-25T13:14:12.222Z,8.03
2017-11-25T13:16:39.761Z,9.37
2017-11-25T13:19:07.241Z,14.30
2017-11-25T13:21:34.716Z,7.60
2017-11-25T13:24:02.167Z,6.80
2017-11-25T13:26:29.619Z,7.57
2017-11-25T13:28:57.094Z,9.40
2017-11-25T13:31:25.310Z,7.30
2017-11-25T13:33:52.787Z,15.10
2017-11-25T13:36:20.258Z,7.43
2017-11-25T13:38:47.718Z,7.63
2017-11-25T13:41:15.171Z,20.20
2017-11-25T13:43:42.721Z,8.23
2017-11-25T13:46:10.183Z,6.10
2017-11-25T13:48:37.646Z,7.20
2017-11-25T13:51:05.109Z,8.30
2017-11-25T13:53:32.657Z,8.80
2017-11-25T13:56:00.145Z,10.30
2017-11-25T13:58:28.728Z,11.40
2017-11-25T14:00:56.977Z,9.93
2017-11-25T14:03:24.944Z,8.90
2017-11-25T14:05:52.417Z,9.17
2017-11-25T14:08:19.874Z,9.53
2017-11-25T14:10:48.118Z,9.90
2017-11-25T14:13:15.770Z,9.30
2017-11-25T14:15:43.256Z,13.17
2017-11-25T14:18:10.774Z,11.30
2017-11-25T14:20:38.374Z,9.10
2017-11-25T14:23:06.128Z,8.07
2017-11-25T14:25:33.604Z,10.23
2017-11-25T14:28:01.242Z,9.80
2017-11-25T14:30:28.731Z,11.90
2017-11-25T14:32:56.976Z,11.90
2017-11-25T14:35:24.940Z,12.23
2017-11-25T14:37:52.417Z,13.50
2017-11-25T14:40:19.887Z,10.27
2017-11-25T14:42:47.338Z,11.70
2017-11-25T14:45:15.566Z,11.37
2017-11-25T14:47:43.162Z,11.80
2017-11-25T14:50:10.617Z,16.67
2017-11-25T14:52:38.196Z,12.93
2017-11-25T14:55:06.426Z,11.80
2017-11-25T14:57:33.892Z,11.50
2017-11-25T15:00:01.377Z,10.90
2017-11-25T15:02:28.876Z,14.60
2017-11-25T15:04:56.335Z,11.53
2017-11-25T15:07:23.794Z,11.13
2017-11-25T15:09:51.404Z,11.13
2017-11-25T15:12:18.922Z,10.60
2017-11-25T15:14:46.381Z,12.30
2017-11-25T15:17:13.853Z,11.90
2017-11-25T15:19:41.379Z,13.10
2017-11-25T15:22:08.891Z,13.03
2017-11-25T15:24:36.550Z,15.80
2017-11-25T15:27:04.013Z,14.87
2017-11-25T15:29:31.508Z,12.10
2017-11-25T15:31:59.179Z,13.20
2017-11-25T15:34:26.938Z,12.80
2017-11-25T15:36:54.525Z,14.43
2017-11-25T15:39:22.681Z,12.30
2017-11-25T15:41:50.138Z,11.00
2017-11-25T15:44:17.709Z,13.00
2017-11-25T15:46:45.683Z,11.87
2017-11-25T15:49:13.319Z,9.77
2017-11-25T15:51:40.786Z,11.50
2017-11-25T15:54:08.549Z,9.83
2017-11-25T15:56:36.022Z,14.57
2017-11-25T15:59:03.519Z,12.20
2017-11-25T16:01:31.754Z,15.93
2017-11-25T16:03:59.253Z,19.33
2017-11-25T16:06:27.484Z,11.80
2017-11-25T16:08:55.047Z,14.90
2017-11-25T16:11:22.499Z,9.37
2017-11-25T16:13:49.995Z,7.73
2017-11-25T16:16:18.370Z,10.40
2017-11-25T16:18:46.653Z,6.83
2017-11-25T16:21:14.902Z,5.63
2017-11-25T16:23:42.389Z,5.60
2017-11-25T16:26:10.781Z,8.80
2017-11-25T16:28:38.274Z,3.80
2017-11-25T16:31:05.734Z,5.90
2017-11-25T16:33:33.205Z,6.47
2017-11-25T16:36:00.665Z,7.30
2017-11-25T16:38:28.121Z,2.90
2017-11-25T16:40:55.585Z,3.17
2017-11-25T16:43:23.033Z,2.70
2017-11-25T16:45:50.502Z,6.23
2017-11-25T16:48:17.962Z,5.30
2017-11-25T16:50:45.429Z,1.87
2017-11-25T16:53:13.670Z,1.60
2017-11-25T16:55:41.120Z,2.70
2017-11-25T16:58:08.593Z,1.70
2017-11-25T17:00:36.053Z,3.87
2017-11-25T17:03:03.517Z,1.83
2017-11-25T17:05:30.974Z,2.30
2017-11-25T17:07:58.439Z,3.50
2017-11-25T17:10:25.899Z,4.53
2017-11-25T17:12:53.356Z,3.37
2017-11-25T17:15:21.578Z,3.97
2017-11-25T17:17:49.041Z,2.13
2017-11-25T17:20:16.489Z,2.17
2017-11-25T17:22:44.057Z,2.17
2017-11-25T17:25:11.512Z,2.03
2017-11-25T17:27:39.175Z,1.60
2017-11-25T17:30:06.626Z,3.23
2017-11-25T17:32:34.094Z,3.17
2017-11-25T17:35:01.567Z,4.20
2017-11-25T17:37:29.023Z,5.03
2017-11-25T17:39:56.489Z,1.80
2017-11-25T17:42:23.969Z,5.50
2017-11-25T17:44:52.211Z,2.90
2017-11-25T17:47:19.665Z,1.93
2017-11-25T17:49:47.129Z,3.53
2017-11-25T17:52:14.599Z,3.47
2017-11-25T17:54:42.067Z,3.67
2017-11-25T17:57:10.288Z,2.63
2017-11-25T17:59:37.766Z,5.47
2017-11-25T18:02:05.297Z,3.07
2017-11-25T18:04:32.762Z,4.60
2017-11-25T18:07:00.214Z,5.37
2017-11-25T18:09:27.681Z,2.40
2017-11-25T18:11:55.159Z,3.93
2017-11-25T18:14:22.634Z,3.90
2017-11-25T18:16:50.865Z,3.93
2017-11-25T18:19:18.322Z,3.73
2017-11-25T18:21:45.805Z,4.23
2017-11-25T18:24:13.265Z,4.20
2017-11-25T18:26:40.790Z,3.20
2017-11-25T18:29:08.438Z,2.10
2017-11-25T18:31:35.949Z,3.40
2017-11-25T18:34:03.432Z,3.70
2017-11-25T18:36:31.959Z,2.90
2017-11-25T18:38:59.431Z,2.70
2017-11-25T18:41:26.910Z,6.33
2017-11-25T18:43:54.359Z,3.57
2017-11-25T18:46:21.924Z,3.33
2017-11-25T18:48:50.141Z,5.53
2017-11-25T18:51:17.685Z,5.67
2017-11-25T18:53:45.278Z,5.67
2017-11-25T18:56:12.746Z,4.83
2017-11-25T18:58:40.240Z,4.30
2017-11-25T19:01:08.558Z,3.53
2017-11-25T19:03:36.183Z,3.50
2017-11-25T19:06:04.478Z,3.00
2017-11-25T19:08:32.007Z,4.87
2017-11-25T19:11:00.876Z,10.70
2017-11-25T19:13:28.560Z,4.67
2017-11-25T19:15:56.883Z,5.63
2017-11-25T19:18:24.512Z,3.63
2017-11-25T19:20:52.009Z,3.00
2017-11-25T19:23:19.478Z,5.83
2017-11-25T19:25:46.940Z,3.37
2017-11-25T19:28:14.605Z,9.53
2017-11-25T19:30:43.010Z,7.67
2017-11-25T19:33:10.590Z,8.57
2017-11-25T19:35:38.274Z,4.17
2017-11-25T19:38:05.933Z,6.37
2017-11-25T19:40:33.633Z,10.30
2017-11-25T19:43:01.099Z,4.10
2017-11-25T19:45:28.570Z,5.20
2017-11-25T19:47:56.988Z,4.90
2017-11-25T19:50:26.408Z,5.40
2017-11-25T19:52:54.850Z,6.27
2017-11-25T19:55:22.307Z,8.57
2017-11-25T19:57:49.782Z,7.37
2017-11-25T20:00:17.239Z,7.80
2017-11-25T20:02:44.711Z,7.47
2017-11-25T20:05:12.186Z,6.97
2017-11-25T20:07:39.683Z,6.23
2017-11-25T20:10:07.950Z,6.60
2017-11-25T20:12:36.275Z,4.97
2017-11-25T20:15:03.759Z,7.43
2017-11-25T20:17:31.255Z,8.70
2017-11-25T20:19:58.853Z,7.50
2017-11-25T20:22:26.361Z,7.57
2017-11-25T20:24:54.835Z,6.33
2017-11-25T20:27:23.057Z,19.37
2017-11-25T20:29:50.536Z,9.60
2017-11-25T20:32:18.182Z,9.33
2017-11-25T20:34:45.686Z,11.60
2017-11-25T20:37:13.135Z,7.10
2017-11-25T20:39:41.435Z,10.77
2017-11-25T20:42:08.913Z,4.13
2017-11-25T20:44:36.473Z,6.07
2017-11-25T20:47:03.953Z,5.13
2017-11-25T20:49:32.953Z,10.63
2017-11-25T20:52:00.743Z,10.17
2017-11-25T20:54:28.488Z,6.40
2017-11-25T20:56:56.041Z,7.77
2017-11-25T20:59:23.514Z,8.30
2017-11-25T21:01:50.971Z,5.73
2017-11-25T21:04:18.535Z,7.10
2017-11-25T21:06:45.998Z,7.80
2017-11-25T21:09:14.220Z,5.87
2017-11-25T21:11:41.690Z,9.33
2017-11-25T21:14:09.278Z,16.90
2017-11-25T21:16:36.773Z,7.70
2017-11-25T21:19:04.268Z,6.03
2017-11-25T21:21:31.803Z,12.20
2017-11-25T21:23:59.322Z,7.50
2017-11-25T21:26:27.782Z,7.63
2017-11-25T21:28:55.259Z,8.40
2017-11-25T21:31:23.490Z,8.20
2017-11-25T21:33:51.003Z,11.93
2017-11-25T21:36:19.327Z,6.43
2017-11-25T21:38:46.803Z,6.93
2017-11-25T21:41:14.346Z,5.87
2017-11-25T21:43:41.818Z,5.10
2017-11-25T21:46:09.434Z,7.40
2017-11-25T21:48:36.914Z,10.50
2017-11-25T21:51:04.365Z,7.23
2017-11-25T21:53:31.829Z,7.83
2017-11-25T21:55:59.381Z,7.53
2017-11-25T21:58:26.857Z,12.33
2017-11-25T22:00:54.318Z,9.73
2017-11-25T22:03:21.781Z,9.47
2017-11-25T22:05:49.258Z,11.03
2017-11-25T22:08:17.496Z,10.37
2017-11-25T22:10:45.029Z,7.43
2017-11-25T22:13:12.534Z,7.90
2017-11-25T22:15:40.191Z,10.50
2017-11-25T22:18:07.686Z,8.23
2017-11-25T22:20:35.116Z,7.93
2017-11-25T22:23:02.566Z,8.90
2017-11-25T22:25:30.746Z,9.00
2017-11-25T22:27:58.185Z,7.80
2017-11-25T22:30:25.687Z,10.13
2017-11-25T22:32:53.952Z,8.57
2017-11-25T22:35:22.224Z,14.00
2017-11-25T22:37:49.774Z,10.47
2017-11-25T22:40:17.250Z,10.83
2017-11-25T22:42:44.715Z,9.00
2017-11-25T22:45:13.145Z,8.27
2017-11-25T22:47:40.628Z,9.60
2017-11-25T22:50:08.997Z,10.23
2017-11-25T22:52:36.468Z,13.80
2017-11-25T22:55:04.718Z,9.87
2017-11-25T22:57:32.163Z,10.83
2017-11-25T22:59:59.638Z,10.37
2017-11-25T23:02:27.093Z,10.67
2017-11-25T23:04:56.078Z,11.30
2017-11-25T23:07:23.565Z,8.60
2017-11-25T23:09:51.826Z,9.87
2017-11-25T23:12:19.287Z,15.27
2017-11-25T23:14:47.522Z,10.30
2017-11-25T23:17:15.013Z,11.73
2017-11-25T23:19:42.501Z,10.70
2017-11-25T23:22:09.951Z,12.00
2017-11-25T23:24:37.524Z,9.03
2017-11-25T23:27:04.975Z,8.97
2017-11-25T23:29:32.488Z,9.13
2017-11-25T23:31:59.975Z,9.70
2017-11-25T23:34:28.217Z,11.60
2017-11-25T23:36:55.775Z,10.97
2017-11-25T23:39:23.262Z,15.37
2017-11-25T23:41:51.497Z,11.90
2017-11-25T23:44:19.100Z,8.93
2017-11-25T23:46:47.367Z,15.97
2017-11-25T23:49:15.802Z,11.50
2017-11-25T23:51:43.270Z,14.20
2017-11-25T23:54:10.748Z,21.33
2017-11-25T23:56:38.361Z,12.60
2017-11-25T23:59:05.839Z,9.00
